Time;durP1;ratioP1;P1;durP2;ratioP2;P2;SDS_P1;SDS_P2;PMS_P1;PMS_P2;Temp;Humidity;BMP_temperature;BMP_pressure;BME280_temperature;BME280_humidity;BME280_pressure;Samples;Min_cycle;Max_cycle;Signal;HPM_P1;HPM_P2
2023/07/28 00:02:19;;;;;;;35.85;27.25;;;21.50;99.90;;;;;;5054041;28;20511;-81
2023/07/28 00:04:45;;;;;;;28.40;25.20;;;21.60;99.90;;;;;;5035902;28;20422;-81
2023/07/28 00:07:11;;;;;;;29.73;26.33;;;21.60;99.90;;;;;;5035797;28;20129;-82
2023/07/28 00:09:36;;;;;;;34.67;29.13;;;21.50;99.90;;;;;;5054087;28;20454;-79
2023/07/28 00:12:03;;;;;;;40.13;30.60;;;21.60;99.90;;;;;;5035831;28;20490;-82
2023/07/28 00:14:29;;;;;;;35.85;26.98;;;21.60;99.90;;;;;;5051634;28;20040;-81
2023/07/28 00:16:56;;;;;;;36.15;26.95;;;21.60;99.90;;;;;;5053992;28;20025;-80
2023/07/28 00:19:23;;;;;;;35.50;28.02;;;21.60;99.90;;;;;;5053963;28;20016;-81
2023/07/28 00:21:49;;;;;;;36.00;26.58;;;21.50;99.90;;;;;;5057374;28;20032;-80
2023/07/28 00:24:16;;;;;;;33.33;25.67;;;21.50;99.90;;;;;;5053024;28;20025;-80
2023/07/28 00:26:42;;;;;;;33.53;27.27;;;21.50;99.90;;;;;;5053849;28;20009;-80
2023/07/28 00:29:08;;;;;;;33.35;27.48;;;21.40;99.90;;;;;;5030719;28;20067;-81
2023/07/28 00:31:34;;;;;;;34.80;28.23;;;21.40;99.90;;;;;;5053277;28;20025;-81
2023/07/28 00:34:01;;;;;;;37.10;28.02;;;21.50;99.90;;;;;;5053586;28;20537;-80
2023/07/28 00:36:27;;;;;;;35.80;28.65;;;21.50;99.90;;;;;;5056836;28;20394;-81
2023/07/28 00:38:53;;;;;;;39.60;29.33;;;21.40;99.90;;;;;;5035146;28;20028;-81
2023/07/28 00:41:19;;;;;;;41.72;30.27;;;21.40;99.90;;;;;;5035142;28;20025;-80
2023/07/28 00:43:45;;;;;;;34.38;28.33;;;21.40;99.90;;;;;;5043665;28;20032;-81
2023/07/28 00:46:12;;;;;;;39.95;28.33;;;21.30;99.90;;;;;;5054905;28;20029;-81
2023/07/28 00:48:38;;;;;;;35.58;28.38;;;21.30;99.90;;;;;;5036415;28;20021;-79
2023/07/28 00:51:05;;;;;;;31.50;27.63;;;21.20;99.90;;;;;;5027233;28;20097;-81
2023/07/28 00:53:31;;;;;;;29.52;26.48;;;21.20;99.90;;;;;;5051768;28;20096;-80
2023/07/28 00:55:57;;;;;;;30.00;26.02;;;21.20;99.90;;;;;;5040743;28;20032;-80
2023/07/28 00:58:23;;;;;;;29.92;26.58;;;21.10;99.90;;;;;;5046324;28;20044;-80
2023/07/28 01:00:49;;;;;;;29.17;26.02;;;21.10;99.90;;;;;;5027710;28;20032;-79
2023/07/28 01:03:18;;;;;;;36.28;27.60;;;21.10;99.90;;;;;;5054543;28;20025;-80
2023/07/28 01:06:12;;;;;;;28.88;25.88;;;21.10;99.90;;;;;;5058233;28;20114;-80
2023/07/28 01:09:16;;;;;;;28.27;25.20;;;21.10;99.90;;;;;;5058525;28;20021;-81
2023/07/28 01:11:56;;;;;;;27.70;25.10;;;21.10;99.90;;;;;;5023050;28;20098;-81
2023/07/28 01:14:22;;;;;;;30.15;24.40;;;21.10;99.90;;;;;;5052609;28;20087;-81
2023/07/28 01:16:48;;;;;;;27.27;21.85;;;21.00;99.90;;;;;;5036656;28;20478;-79
2023/07/28 01:19:18;;;;;;;27.40;24.52;;;21.00;99.90;;;;;;5025459;28;20029;-80
2023/07/28 01:21:49;;;;;;;28.75;24.42;;;21.00;99.90;;;;;;5043876;28;20018;-80
2023/07/28 01:24:55;;;;;;;27.80;23.08;;;21.00;99.90;;;;;;5029062;28;20028;-80
2023/07/28 01:27:22;;;;;;;30.55;25.05;;;21.10;99.90;;;;;;4994823;28;20046;-80
2023/07/28 01:29:48;;;;;;;28.45;25.15;;;21.00;99.90;;;;;;4990815;28;20571;-80
2023/07/28 01:32:14;;;;;;;26.90;24.05;;;21.00;99.90;;;;;;4990412;28;20053;-79
2023/07/28 01:34:41;;;;;;;26.67;23.88;;;21.00;99.90;;;;;;4989729;28;20146;-81
2023/07/28 01:37:07;;;;;;;26.35;23.55;;;21.10;99.90;;;;;;4973786;28;20440;-80
2023/07/28 01:39:33;;;;;;;27.90;25.05;;;21.20;99.90;;;;;;4990828;28;20046;-81
2023/07/28 01:41:59;;;;;;;28.90;25.90;;;21.20;99.90;;;;;;4987747;28;20030;-80
2023/07/28 01:44:25;;;;;;;27.67;24.95;;;21.20;99.90;;;;;;4984174;28;20038;-80
2023/07/28 01:46:51;;;;;;;30.20;24.35;;;21.20;99.90;;;;;;4987501;28;20105;-81
2023/07/28 01:49:16;;;;;;;27.92;24.33;;;21.20;99.90;;;;;;4987131;28;20421;-80
2023/07/28 01:51:42;;;;;;;30.35;24.13;;;21.20;99.90;;;;;;4982039;28;20029;-80
2023/07/28 01:54:08;;;;;;;26.00;23.40;;;21.20;99.90;;;;;;4991970;28;20129;-80
2023/07/28 01:56:34;;;;;;;30.20;24.48;;;21.20;99.90;;;;;;4991260;28;20026;-80
2023/07/28 01:59:00;;;;;;;26.02;22.83;;;21.20;99.90;;;;;;4992748;28;20042;-81
2023/07/28 02:01:26;;;;;;;27.88;23.83;;;21.20;99.90;;;;;;5006018;28;20557;-80
2023/07/28 02:03:52;;;;;;;24.60;21.85;;;21.20;99.90;;;;;;5046893;28;20037;-81
2023/07/28 02:06:18;;;;;;;27.67;23.63;;;21.20;99.90;;;;;;5059932;28;20032;-78
2023/07/28 02:08:44;;;;;;;24.85;22.30;;;21.20;99.90;;;;;;5067664;28;20025;-79
2023/07/28 02:11:10;;;;;;;25.15;22.63;;;21.30;99.90;;;;;;5040722;28;20025;-81
2023/07/28 02:13:36;;;;;;;25.83;23.25;;;21.30;99.90;;;;;;5054286;28;20021;-80
2023/07/28 02:16:01;;;;;;;28.27;21.67;;;21.30;99.90;;;;;;5022562;28;20034;-79
2023/07/28 02:18:27;;;;;;;30.25;23.20;;;21.30;99.90;;;;;;5052165;28;20015;-81
2023/07/28 02:20:53;;;;;;;26.90;21.08;;;21.30;99.90;;;;;;5048743;28;20025;-80
2023/07/28 02:23:19;;;;;;;26.42;21.80;;;21.30;99.90;;;;;;5053176;28;20028;-81
2023/07/28 02:25:45;;;;;;;29.42;22.70;;;21.30;99.90;;;;;;5035812;28;20072;-80
2023/07/28 02:28:11;;;;;;;24.88;21.83;;;21.30;99.90;;;;;;5034267;28;20029;-81
2023/07/28 02:30:38;;;;;;;26.30;23.20;;;21.30;99.90;;;;;;5053638;28;20087;-80
2023/07/28 02:33:03;;;;;;;25.85;23.25;;;21.30;99.90;;;;;;5033794;28;20025;-81
2023/07/28 02:35:31;;;;;;;24.55;21.98;;;21.40;99.90;;;;;;5052905;28;20040;-79
2023/07/28 02:37:58;;;;;;;25.45;22.10;;;21.40;99.90;;;;;;5051766;28;20099;-80
2023/07/28 02:40:24;;;;;;;26.90;21.27;;;21.40;99.90;;;;;;5051434;28;20078;-80
2023/07/28 02:42:50;;;;;;;26.58;22.15;;;21.40;99.90;;;;;;5051299;28;20021;-80
2023/07/28 02:45:15;;;;;;;26.25;23.50;;;21.40;99.90;;;;;;5051284;28;20630;-80
2023/07/28 02:47:41;;;;;;;25.13;22.42;;;21.30;99.90;;;;;;5054475;28;20486;-79
2023/07/28 02:50:07;;;;;;;23.08;20.40;;;21.30;99.90;;;;;;5054902;28;20025;-79
2023/07/28 02:52:33;;;;;;;30.20;23.35;;;21.30;99.90;;;;;;5054967;28;20044;-81
2023/07/28 02:54:59;;;;;;;26.67;23.45;;;21.30;99.90;;;;;;5056987;28;20041;-79
2023/07/28 02:57:25;;;;;;;23.33;20.88;;;21.40;99.90;;;;;;5059708;28;20024;-80
2023/07/28 02:59:51;;;;;;;25.20;22.45;;;21.40;99.90;;;;;;5043013;28;20032;-80
2023/07/28 03:02:17;;;;;;;28.67;22.95;;;21.50;99.90;;;;;;5039118;28;20047;-80
2023/07/28 03:04:43;;;;;;;24.77;22.17;;;21.50;99.90;;;;;;5055982;28;20124;-80
2023/07/28 03:07:09;;;;;;;26.77;23.00;;;21.50;99.90;;;;;;5054939;28;20516;-81
2023/07/28 03:09:35;;;;;;;23.20;20.83;;;21.50;99.90;;;;;;5050844;28;20106;-78
2023/07/28 03:12:01;;;;;;;26.77;22.27;;;21.50;99.90;;;;;;5059954;28;20051;-80
2023/07/28 03:14:28;;;;;;;23.83;19.40;;;21.50;99.90;;;;;;5035424;28;20498;-80
2023/07/28 03:16:54;;;;;;;21.00;19.00;;;21.50;99.90;;;;;;5037479;28;20021;-80
2023/07/28 03:19:20;;;;;;;25.83;20.02;;;21.40;99.90;;;;;;5054829;28;20517;-82
2023/07/28 03:21:46;;;;;;;24.70;20.27;;;21.40;99.90;;;;;;5056808;28;20098;-78
2023/07/28 03:24:12;;;;;;;20.70;18.50;;;21.40;99.90;;;;;;5055176;28;20033;-81
2023/07/28 03:26:37;;;;;;;26.45;20.67;;;21.40;99.90;;;;;;5054302;28;20023;-80
2023/07/28 03:29:04;;;;;;;22.20;19.75;;;21.40;99.90;;;;;;5040932;28;20033;-80
2023/07/28 03:31:30;;;;;;;25.23;19.80;;;21.50;99.90;;;;;;5055371;28;20463;-79
2023/07/28 03:33:56;;;;;;;22.20;19.00;;;21.70;99.90;;;;;;5046553;28;20103;-81
2023/07/28 03:36:22;;;;;;;21.48;19.13;;;21.70;99.90;;;;;;5036503;28;20116;-80
2023/07/28 03:38:48;;;;;;;24.20;19.48;;;21.70;99.90;;;;;;5036649;28;20017;-79
2023/07/28 03:41:14;;;;;;;22.27;18.55;;;21.60;99.90;;;;;;5054438;28;20391;-80
2023/07/28 03:43:41;;;;;;;21.75;19.15;;;21.50;99.90;;;;;;5054326;28;20037;-80
2023/07/28 03:46:07;;;;;;;37.88;22.52;;;21.40;99.90;;;;;;5054832;28;20025;-80
2023/07/28 03:48:33;;;;;;;29.55;21.92;;;21.20;99.90;;;;;;5036798;28;20029;-82
2023/07/28 03:50:59;;;;;;;31.08;25.60;;;20.60;99.90;;;;;;5054643;28;20052;-81
2023/07/28 03:53:24;;;;;;;32.28;26.45;;;20.40;99.90;;;;;;5054277;28;20074;-81
2023/07/28 03:55:50;;;;;;;38.40;23.90;;;20.30;99.90;;;;;;5053837;28;20021;-83
2023/07/28 03:58:16;;;;;;;30.70;22.60;;;20.20;99.90;;;;;;5052747;28;20033;-83
2023/07/28 04:00:42;;;;;;;30.83;26.35;;;20.10;99.90;;;;;;5053746;28;20039;-81
2023/07/28 04:03:08;;;;;;;30.40;26.10;;;20.00;99.90;;;;;;5053698;28;20025;-79
2023/07/28 04:05:36;;;;;;;27.33;24.27;;;19.90;99.90;;;;;;5055029;28;20049;-78
2023/07/28 04:08:02;;;;;;;32.92;28.23;;;19.90;99.90;;;;;;5056779;28;20025;-80
2023/07/28 04:10:28;;;;;;;32.42;28.65;;;19.90;99.90;;;;;;5054310;28;20025;-79
2023/07/28 04:12:54;;;;;;;29.05;26.20;;;19.90;99.90;;;;;;5055741;28;20482;-79
2023/07/28 04:15:20;;;;;;;31.95;28.38;;;19.90;99.90;;;;;;5037978;28;20035;-80
2023/07/28 04:17:46;;;;;;;35.17;31.40;;;19.90;99.90;;;;;;5037772;28;20062;-81
2023/07/28 04:20:12;;;;;;;33.97;30.35;;;20.00;99.90;;;;;;5037563;28;20386;-82
2023/07/28 04:22:38;;;;;;;40.47;33.13;;;20.00;99.90;;;;;;5036736;28;20021;-82
2023/07/28 04:25:04;;;;;;;37.40;31.05;;;19.90;99.90;;;;;;5037515;28;20029;-82
2023/07/28 04:27:30;;;;;;;34.97;31.23;;;19.90;99.90;;;;;;5037909;28;20025;-81
2023/07/28 04:29:56;;;;;;;34.80;31.08;;;20.00;99.90;;;;;;5021794;28;20071;-81
2023/07/28 04:32:22;;;;;;;32.53;28.38;;;20.00;99.90;;;;;;5053734;28;20478;-81
2023/07/28 04:34:48;;;;;;;34.65;30.90;;;20.00;99.90;;;;;;5053206;28;20044;-81
2023/07/28 04:37:14;;;;;;;41.05;33.88;;;19.90;99.90;;;;;;5035212;28;20025;-81
2023/07/28 04:39:40;;;;;;;48.75;36.40;;;19.90;99.90;;;;;;5035426;28;20386;-80
2023/07/28 04:42:06;;;;;;;41.67;35.28;;;19.90;99.90;;;;;;5053829;28;20017;-81
2023/07/28 04:44:32;;;;;;;42.17;35.50;;;20.00;99.90;;;;;;5059850;28;20028;-79
2023/07/28 04:46:58;;;;;;;40.55;36.25;;;20.10;99.90;;;;;;5059649;28;20374;-80
2023/07/28 04:49:24;;;;;;;41.28;36.78;;;20.20;99.90;;;;;;5056481;28;20022;-82
2023/07/28 04:51:49;;;;;;;38.60;34.38;;;20.30;99.90;;;;;;5039580;28;20032;-81
2023/07/28 04:54:15;;;;;;;39.92;35.70;;;20.40;99.90;;;;;;5049418;28;20831;-79
2023/07/28 04:56:41;;;;;;;40.35;32.42;;;20.40;99.90;;;;;;5029787;28;20037;-80
2023/07/28 04:59:07;;;;;;;42.67;35.70;;;20.40;99.90;;;;;;5042548;28;20032;-79
2023/07/28 05:01:34;;;;;;;39.75;35.15;;;20.50;99.90;;;;;;5047836;28;20478;-80
2023/07/28 05:03:59;;;;;;;44.10;37.22;;;20.70;99.90;;;;;;5056191;28;20076;-80
2023/07/28 05:06:25;;;;;;;33.35;29.70;;;20.80;99.90;;;;;;5047325;28;20521;-80
2023/07/28 05:08:51;;;;;;;32.85;29.55;;;21.00;99.90;;;;;;5054479;28;20408;-80
2023/07/28 05:11:17;;;;;;;36.65;32.88;;;21.20;99.90;;;;;;5058254;28;20158;-81
2023/07/28 05:13:44;;;;;;;33.05;29.25;;;21.40;99.90;;;;;;5059520;28;20056;-81
2023/07/28 05:16:10;;;;;;;34.05;30.55;;;21.50;99.90;;;;;;5026384;28;20118;-79
2023/07/28 05:18:36;;;;;;;39.60;31.95;;;21.50;99.90;;;;;;5045217;28;20389;-80
2023/07/28 05:21:02;;;;;;;35.78;28.73;;;21.60;99.90;;;;;;5057569;28;20487;-79
2023/07/28 05:23:28;;;;;;;31.40;26.88;;;21.70;99.90;;;;;;5073337;28;20026;-81
2023/07/28 05:25:54;;;;;;;32.83;26.58;;;21.60;99.90;;;;;;5074663;28;20044;-80
2023/07/28 05:28:20;;;;;;;33.42;24.85;;;21.60;99.90;;;;;;5068936;28;20016;-79
2023/07/28 05:30:46;;;;;;;30.15;25.33;;;21.60;99.90;;;;;;5052991;28;20028;-81
2023/07/28 05:33:12;;;;;;;25.40;21.15;;;21.60;99.90;;;;;;5047305;28;20025;-80
2023/07/28 05:35:38;;;;;;;28.70;23.63;;;21.80;99.90;;;;;;5063530;28;20037;-80
2023/07/28 05:38:03;;;;;;;27.27;24.45;;;21.80;99.90;;;;;;5029946;28;20021;-81
2023/07/28 05:40:30;;;;;;;24.63;21.83;;;22.10;99.90;;;;;;5032388;28;20056;-79
2023/07/28 05:42:56;;;;;;;24.30;20.52;;;22.60;99.90;;;;;;5048829;28;20025;-81
2023/07/28 05:45:21;;;;;;;20.05;16.83;;;23.00;99.90;;;;;;5032319;28;20031;-80
2023/07/28 05:47:47;;;;;;;24.90;17.50;;;23.10;99.90;;;;;;5037585;28;20017;-81
2023/07/28 05:50:13;;;;;;;23.10;19.45;;;22.70;99.90;;;;;;5023235;28;20041;-83
2023/07/28 05:52:39;;;;;;;19.40;17.27;;;22.30;99.90;;;;;;5037410;28;20029;-82
2023/07/28 05:55:05;;;;;;;25.00;21.27;;;22.10;99.90;;;;;;5039142;28;20033;-83
2023/07/28 05:57:31;;;;;;;23.77;21.23;;;21.90;99.90;;;;;;5059954;28;20022;-83
2023/07/28 05:59:57;;;;;;;21.75;18.35;;;22.00;99.90;;;;;;5046494;28;20037;-81
2023/07/28 06:02:23;;;;;;;26.42;19.85;;;22.10;99.90;;;;;;5044488;28;20017;-80
2023/07/28 06:05:05;;;;;;;20.60;15.77;;;22.20;99.90;;;;;;5030803;28;20049;-82
2023/07/28 06:07:31;;;;;;;19.35;13.75;;;22.30;99.90;;;;;;5022210;28;20025;-81
2023/07/28 06:09:57;;;;;;;13.90;11.32;;;22.30;99.90;;;;;;5033075;28;20033;-84
2023/07/28 06:12:22;;;;;;;16.27;14.13;;;22.30;99.90;;;;;;5046994;28;20360;-82
2023/07/28 06:14:48;;;;;;;16.05;13.70;;;22.30;99.90;;;;;;5021420;28;20529;-84
2023/07/28 06:17:14;;;;;;;18.10;12.70;;;22.60;99.90;;;;;;5032656;28;20029;-84
2023/07/28 06:19:40;;;;;;;15.82;12.35;;;22.70;99.90;;;;;;5053724;28;20032;-82
2023/07/28 06:22:06;;;;;;;17.23;12.38;;;22.60;99.90;;;;;;5042639;28;20547;-84
2023/07/28 06:24:32;;;;;;;15.25;10.77;;;22.80;99.90;;;;;;5036109;28;20021;-84
2023/07/28 06:26:59;;;;;;;15.23;10.07;;;23.60;99.90;;;;;;5048051;28;20069;-83
2023/07/28 06:29:25;;;;;;;10.95;9.25;;;24.60;99.90;;;;;;5044107;28;20022;-86
2023/07/28 06:31:51;;;;;;;12.90;9.73;;;24.40;99.90;;;;;;5051442;28;20162;-82
2023/07/28 06:34:17;;;;;;;9.85;7.93;;;23.90;99.90;;;;;;5059330;28;20049;-82
2023/07/28 06:36:42;;;;;;;13.95;9.23;;;23.40;99.90;;;;;;5055445;28;20052;-82
2023/07/28 06:39:08;;;;;;;13.35;9.93;;;22.80;99.90;;;;;;5040345;28;20098;-83
2023/07/28 06:41:34;;;;;;;15.80;11.35;;;22.60;99.90;;;;;;5042563;28;20035;-83
2023/07/28 06:44:01;;;;;;;18.65;11.85;;;22.40;99.90;;;;;;5060074;28;20059;-82
2023/07/28 06:46:28;;;;;;;14.73;10.40;;;22.30;99.90;;;;;;5027906;28;20398;-81
2023/07/28 06:48:54;;;;;;;15.35;9.40;;;22.20;99.90;;;;;;5032071;28;20035;-85
2023/07/28 06:51:20;;;;;;;12.90;9.48;;;21.90;99.90;;;;;;5043515;28;20061;-80
2023/07/28 06:53:45;;;;;;;12.10;9.13;;;21.70;99.90;;;;;;5031338;28;20033;-82
2023/07/28 06:56:11;;;;;;;20.58;12.13;;;21.50;99.90;;;;;;5043439;28;20399;-83
2023/07/28 06:58:37;;;;;;;15.00;10.95;;;21.00;99.90;;;;;;5044174;28;20028;-83
2023/07/28 07:01:03;;;;;;;15.43;11.32;;;20.60;99.90;;;;;;5057852;28;20029;-82
2023/07/28 07:03:29;;;;;;;16.45;11.70;;;20.40;99.90;;;;;;5056870;28;20151;-83
2023/07/28 07:05:55;;;;;;;13.77;10.65;;;20.20;99.90;;;;;;5056429;28;20116;-82
2023/07/28 07:08:21;;;;;;;14.90;12.50;;;20.10;99.90;;;;;;5056056;28;20047;-83
2023/07/28 07:10:49;;;;;;;17.15;13.52;;;20.10;99.90;;;;;;5034604;28;20112;-82
2023/07/28 07:13:16;;;;;;;17.50;13.68;;;20.10;99.90;;;;;;5054960;28;20017;-83
2023/07/28 07:15:42;;;;;;;17.20;14.10;;;20.20;99.90;;;;;;5052753;28;20072;-83
2023/07/28 07:18:08;;;;;;;15.65;12.38;;;20.20;99.90;;;;;;5044877;28;20013;-83
2023/07/28 07:20:35;;;;;;;18.95;14.70;;;20.30;99.90;;;;;;5055467;28;20023;-81
2023/07/28 07:23:01;;;;;;;28.20;25.10;;;20.30;99.90;;;;;;5057254;28;20447;-82
2023/07/28 07:25:27;;;;;;;21.75;17.60;;;20.30;99.90;;;;;;5061481;28;20029;-84
2023/07/28 07:27:53;;;;;;;18.05;15.52;;;20.50;99.90;;;;;;5038304;28;20032;-83
2023/07/28 07:30:19;;;;;;;17.20;13.70;;;20.60;99.90;;;;;;5036965;28;20390;-83
2023/07/28 07:32:45;;;;;;;20.45;13.57;;;20.60;99.90;;;;;;5035859;28;20028;-82
2023/07/28 07:35:12;;;;;;;17.50;13.80;;;20.60;99.90;;;;;;5036940;28;20032;-83
2023/07/28 07:37:46;;;;;;;15.40;13.63;;;20.70;99.90;;;;;;5036977;28;20028;-82
2023/07/28 07:40:14;;;;;;;15.00;13.18;;;20.90;99.90;;;;;;5054468;28;20043;-82
2023/07/28 07:42:48;;;;;;;15.32;12.27;;;20.80;99.90;;;;;;5055361;28;20339;-81
2023/07/28 07:45:14;;;;;;;18.98;13.60;;;20.60;99.90;;;;;;5052321;28;20048;-82
2023/07/28 07:47:41;;;;;;;16.42;12.73;;;20.50;99.90;;;;;;5051139;28;20492;-83
2023/07/28 07:50:09;;;;;;;15.70;12.90;;;20.50;99.90;;;;;;5042390;28;20112;-81
2023/07/28 07:52:36;;;;;;;19.13;12.70;;;20.50;99.90;;;;;;5037322;28;20155;-82
2023/07/28 07:55:03;;;;;;;17.55;14.18;;;20.50;99.90;;;;;;5038135;28;20091;-84
2023/07/28 07:57:30;;;;;;;20.60;15.27;;;20.60;99.90;;;;;;5034233;28;20111;-84
2023/07/28 07:59:58;;;;;;;20.13;16.50;;;20.90;99.90;;;;;;5037420;28;20024;-84
2023/07/28 08:02:25;;;;;;;20.90;16.23;;;21.20;99.90;;;;;;5038674;28;20021;-84
2023/07/28 08:04:54;;;;;;;17.25;14.13;;;21.60;99.90;;;;;;5038531;28;20041;-84
2023/07/28 08:07:22;;;;;;;19.45;15.48;;;22.30;99.90;;;;;;5040354;28;20021;-84
2023/07/28 08:09:48;;;;;;;18.02;12.82;;;23.10;99.90;;;;;;5037312;28;20112;-84
2023/07/28 08:12:24;;;;;;;17.93;12.23;;;24.10;99.90;;;;;;5055215;28;20020;-84
2023/07/28 08:14:50;;;;;;;15.30;11.77;;;25.10;99.90;;;;;;5036418;28;20029;-83
2023/07/28 08:17:16;;;;;;;15.85;11.07;;;25.90;99.90;;;;;;5045457;28;20022;-82
2023/07/28 08:19:45;;;;;;;12.00;8.35;;;27.30;99.90;;;;;;5036879;28;20032;-81
2023/07/28 08:22:12;;;;;;;12.75;9.43;;;27.50;99.90;;;;;;5039891;28;20367;-82
2023/07/28 08:24:38;;;;;;;13.05;9.90;;;27.40;97.90;;;;;;5052306;28;20021;-82
2023/07/28 08:27:06;;;;;;;12.80;9.00;;;28.20;95.90;;;;;;5058191;28;20048;-82
2023/07/28 08:29:32;;;;;;;14.07;8.57;;;29.10;94.20;;;;;;5042049;28;20096;-82
2023/07/28 08:32:01;;;;;;;9.20;8.27;;;29.80;91.20;;;;;;5039155;28;20044;-82
2023/07/28 08:34:30;;;;;;;9.27;8.32;;;31.00;88.80;;;;;;5056751;28;20373;-82
2023/07/28 08:37:06;;;;;;;9.35;7.93;;;32.40;83.20;;;;;;5051204;28;20032;-81
2023/07/28 08:39:36;;;;;;;8.00;6.90;;;32.30;78.80;;;;;;5059771;28;20113;-81
2023/07/28 08:42:09;;;;;;;8.48;6.88;;;32.90;74.70;;;;;;5044434;28;20032;-83
2023/07/28 08:44:55;;;;;;;;;;;;;;;;;;;;;
2023/07/28 08:47:21;;;;;;;10.48;7.85;;;33.20;70.20;;;;;;5054648;28;20029;-84
2023/07/28 08:49:47;;;;;;;12.88;8.02;;;32.00;72.20;;;;;;5035445;28;20032;-83
2023/07/28 08:52:17;;;;;;;7.55;6.68;;;30.80;75.20;;;;;;5034931;28;20021;-83
2023/07/28 08:54:43;;;;;;;13.10;7.82;;;29.80;77.30;;;;;;5035484;28;20045;-82
2023/07/28 08:57:10;;;;;;;9.48;8.07;;;29.60;79.70;;;;;;5051960;28;20025;-82
2023/07/28 08:59:41;;;;;;;10.40;7.13;;;29.20;79.30;;;;;;5022432;28;20032;-84
2023/07/28 09:02:10;;;;;;;9.63;7.18;;;;;;;;;;5054284;28;20029;-83
2023/07/28 09:04:36;;;;;;;7.97;7.18;;;;;;;;;;5057458;28;20041;-82
2023/07/28 09:07:09;;;;;;;11.23;7.37;;;28.50;81.20;;;;;;5035643;28;20390;-83
2023/07/28 09:09:38;;;;;;;10.18;8.05;;;28.50;85.70;;;;;;5053273;28;20379;-83
2023/07/28 09:12:05;;;;;;;12.95;8.48;;;29.20;81.10;;;;;;5034748;28;20478;-85
2023/07/28 09:14:34;;;;;;;12.10;8.18;;;28.90;81.00;;;;;;5035123;28;20478;-82
2023/07/28 09:17:08;;;;;;;13.82;10.05;;;28.10;81.90;;;;;;5053679;28;20043;-83
2023/07/28 09:19:34;;;;;;;13.50;10.70;;;27.20;85.60;;;;;;5036038;28;20474;-83
2023/07/28 09:22:01;;;;;;;22.27;12.73;;;26.70;88.10;;;;;;5036079;28;20039;-81
2023/07/28 09:24:34;;;;;;;10.40;8.90;;;26.40;89.80;;;;;;5055776;28;20426;-82
2023/07/28 09:27:01;;;;;;;18.48;11.88;;;26.10;90.20;;;;;;5057121;28;20048;-82
2023/07/28 09:29:30;;;;;;;14.55;10.85;;;25.80;91.10;;;;;;5042614;28;20025;-82
2023/07/28 09:32:08;;;;;;;12.18;10.57;;;25.40;92.00;;;;;;5040624;28;20449;-83
2023/07/28 09:34:34;;;;;;;19.02;11.23;;;25.20;92.20;;;;;;5054577;28;20024;-83
2023/07/28 09:37:01;;;;;;;15.85;11.77;;;25.00;93.00;;;;;;5035192;28;20137;-83
2023/07/28 09:39:27;;;;;;;;;;;24.80;93.60;;;;;;5053971;28;20526;-83
2023/07/28 09:41:58;;;;;;;13.47;10.70;;;;;;;;;;5036057;28;19909;-81
2023/07/28 09:44:24;;;;;;;17.23;10.75;;;;;;;;;;5046024;28;20028;-82
2023/07/28 09:46:55;;;;;;;14.95;11.63;;;;;;;;;;5034721;28;20524;-81
2023/07/28 09:49:38;;;;;;;14.52;10.57;;;;;;;;;;5052523;28;20437;-83
2023/07/28 09:52:09;;;;;;;10.23;9.07;;;24.50;93.50;;;;;;5052499;28;20029;-83
2023/07/28 09:54:40;;;;;;;13.13;9.63;;;23.70;96.90;;;;;;5053680;28;20131;-83
2023/07/28 09:57:13;;;;;;;11.98;9.82;;;23.30;97.80;;;;;;5023605;28;20025;-81
2023/07/28 09:59:40;;;;;;;11.82;10.63;;;23.10;98.60;;;;;;5044444;28;20048;-81
2023/07/28 10:02:08;;;;;;;11.88;10.48;;;23.00;99.20;;;;;;5041152;28;20108;-81
2023/07/28 10:04:34;;;;;;;13.35;10.57;;;23.00;99.70;;;;;;5059620;28;20394;-82
2023/07/28 10:07:03;;;;;;;11.90;10.70;;;23.00;99.80;;;;;;5041219;28;20029;-81
2023/07/28 10:09:33;;;;;;;13.13;10.43;;;23.10;99.90;;;;;;5042887;28;20036;-82
2023/07/28 10:12:00;;;;;;;11.57;10.32;;;23.10;99.90;;;;;;5059705;28;20577;-83
2023/07/28 10:14:30;;;;;;;12.63;11.02;;;23.10;99.90;;;;;;5055824;28;20040;-81
2023/07/28 10:16:58;;;;;;;14.60;12.68;;;23.00;99.90;;;;;;5044041;28;20095;-84
2023/07/28 10:19:27;;;;;;;20.10;14.07;;;22.90;99.90;;;;;;5056906;28;20055;-82
2023/07/28 10:22:26;;;;;;;12.27;10.98;;;22.80;99.90;;;;;;5043147;28;20013;-83
2023/07/28 10:25:01;;;;;;;16.25;14.52;;;22.70;99.90;;;;;;5024886;28;20061;-83
2023/07/28 10:27:34;;;;;;;15.40;11.88;;;22.60;99.90;;;;;;5029575;28;20021;-83
2023/07/28 10:30:04;;;;;;;13.90;12.43;;;22.40;99.90;;;;;;5040668;28;20082;-82
2023/07/28 10:32:41;;;;;;;14.95;13.40;;;22.20;99.90;;;;;;5042305;28;20033;-84
2023/07/28 10:35:25;;;;;;;15.35;13.65;;;22.00;99.90;;;;;;5060590;28;20029;-83
2023/07/28 10:37:51;;;;;;;14.95;12.90;;;21.80;99.90;;;;;;5045052;28;20115;-83
2023/07/28 10:40:34;;;;;;;14.45;13.05;;;21.80;99.90;;;;;;5031593;28;20025;-83
2023/07/28 10:43:04;;;;;;;18.00;16.30;;;21.80;99.90;;;;;;5047275;28;20501;-84
2023/07/28 10:45:32;;;;;;;19.88;17.90;;;21.80;99.90;;;;;;5058926;28;20021;-83
2023/07/28 10:48:03;;;;;;;23.60;18.08;;;21.90;99.90;;;;;;5057184;28;20025;-82
2023/07/28 10:50:32;;;;;;;19.73;17.35;;;22.10;99.90;;;;;;5038029;28;20505;-83
2023/07/28 10:52:58;;;;;;;16.10;14.25;;;22.40;99.90;;;;;;5057567;28;20059;-83
2023/07/28 10:55:26;;;;;;;18.65;16.20;;;22.60;99.90;;;;;;5058640;28;20078;-82
2023/07/28 10:57:53;;;;;;;16.77;15.27;;;22.60;99.90;;;;;;5040634;28;20027;-82
2023/07/28 11:00:21;;;;;;;19.38;17.35;;;22.80;99.90;;;;;;5039309;28;20034;-83
2023/07/28 11:02:53;;;;;;;18.48;16.58;;;23.00;99.90;;;;;;5043325;28;20025;-83
2023/07/28 11:05:27;;;;;;;22.65;20.40;;;23.20;99.90;;;;;;5056335;28;20057;-84
2023/07/28 11:07:58;;;;;;;16.65;15.05;;;23.30;99.90;;;;;;5056245;28;20021;-82
2023/07/28 11:10:27;;;;;;;19.83;17.92;;;23.60;99.90;;;;;;5042751;28;20021;-84
2023/07/28 11:12:54;;;;;;;20.85;18.83;;;23.70;99.90;;;;;;5039295;28;20017;-82
2023/07/28 11:15:20;;;;;;;19.65;17.63;;;24.00;99.90;;;;;;5056827;28;20037;-82
2023/07/28 11:17:50;;;;;;;20.10;17.48;;;24.00;99.90;;;;;;5058030;28;20021;-82
2023/07/28 11:20:18;;;;;;;20.75;18.67;;;24.00;99.90;;;;;;5056367;28;20433;-83
2023/07/28 11:22:44;;;;;;;;;;;23.90;99.90;;;;;;5055442;28;20496;-83
2023/07/28 11:25:11;;;;;;;20.90;18.30;;;23.90;99.90;;;;;;5055853;28;19912;-84
2023/07/28 11:27:38;;;;;;;19.35;17.30;;;23.60;99.90;;;;;;5056438;28;20379;-85
2023/07/28 11:30:07;;;;;;;23.70;20.45;;;23.50;99.90;;;;;;5038135;28;20074;-84
2023/07/28 11:32:35;;;;;;;20.52;18.42;;;23.30;99.90;;;;;;5030407;28;20029;-83
2023/07/28 11:35:09;;;;;;;21.48;19.45;;;23.10;99.90;;;;;;5057042;28;20450;-84
2023/07/28 11:37:36;;;;;;;21.45;19.35;;;22.90;99.90;;;;;;5037161;28;20017;-84
2023/07/28 11:40:06;;;;;;;16.23;14.20;;;22.80;99.90;;;;;;5042456;28;20387;-83
2023/07/28 11:42:40;;;;;;;19.65;15.80;;;22.70;99.90;;;;;;5026230;28;20124;-84
2023/07/28 11:45:08;;;;;;;25.55;22.67;;;22.60;99.90;;;;;;5055990;28;20040;-83
2023/07/28 11:47:34;;;;;;;19.80;17.60;;;22.60;99.90;;;;;;5057759;28;20422;-81
2023/07/28 11:50:00;;;;;;;16.33;13.88;;;22.70;99.90;;;;;;5026533;28;20513;-83
2023/07/28 11:52:33;;;;;;;17.58;15.07;;;22.90;99.90;;;;;;5056280;28;20048;-83
2023/07/28 11:55:00;;;;;;;19.35;14.90;;;23.10;99.90;;;;;;5056945;28;20029;-82
2023/07/28 11:57:27;;;;;;;17.13;15.43;;;23.30;99.90;;;;;;5032791;28;20021;-82
2023/07/28 11:59:54;;;;;;;18.00;14.77;;;23.40;99.90;;;;;;5054880;28;20500;-83
2023/07/28 12:02:31;;;;;;;15.02;13.60;;;23.60;99.90;;;;;;5060868;28;20386;-82
2023/07/28 12:04:58;;;;;;;;;;;23.90;99.90;;;;;;5055843;28;20111;-84
2023/07/28 12:07:36;;;;;;;17.30;12.55;;;24.10;99.90;;;;;;5037474;28;19905;-82
2023/07/28 12:10:08;;;;;;;15.43;13.65;;;24.10;99.90;;;;;;5023783;28;20064;-83
2023/07/28 12:12:47;;;;;;;16.98;15.10;;;24.10;99.90;;;;;;5032716;28;20446;-83
2023/07/28 12:15:28;;;;;;;14.20;12.80;;;24.10;99.90;;;;;;5024035;28;20049;-85
2023/07/28 12:18:20;;;;;;;15.15;13.55;;;24.10;99.90;;;;;;5054198;28;20047;-83
2023/07/28 12:20:47;;;;;;;17.00;13.18;;;24.10;99.90;;;;;;5029835;28;20438;-85
2023/07/28 12:23:21;;;;;;;15.80;14.07;;;24.10;99.90;;;;;;5038540;28;20482;-83
2023/07/28 12:25:48;;;;;;;13.93;12.43;;;24.20;99.90;;;;;;5059348;28;20039;-83
2023/07/28 12:28:14;;;;;;;16.25;13.95;;;24.40;99.50;;;;;;5055721;28;20040;-81
2023/07/28 12:30:40;;;;;;;17.60;13.30;;;24.40;99.50;;;;;;5043178;28;20022;-81
2023/07/28 12:33:07;;;;;;;19.85;12.30;;;24.30;98.90;;;;;;5036099;28;20040;-84
2023/07/28 12:35:37;;;;;;;;;;;24.20;99.20;;;;;;5053788;28;20048;-82
2023/07/28 12:38:04;;;;;;;16.63;13.30;;;24.10;99.50;;;;;;5045542;28;19909;-82